Terminal Aerodrome Forecast
Issued by NWS

Home | Current Version | Previous Version | Text Only | Print | Product List | Glossary On
Versions: 1 2 3 4 5 6 7 8 9 10 11 12
000
FTUS46 KHNX 051741
TAFFAT
TAF
KFAT 051741Z 0518/0618 VRB04KT P6SM BKN050 OVC080
     FM060000 30007KT P6SM -SHRA SCT030 BKN050 PROB30 0603/0609 3SM
      TSRA BKN025CB=

USA.gov is the U.S. government's official web portal to all federal, state and local government web resources and services.